createdAt,value
2023-04-16T00:00:26.651Z,73.50
2023-04-16T00:02:54.095Z,77.50
2023-04-16T00:05:21.289Z,80.40
2023-04-16T00:07:48.262Z,82.10
2023-04-16T00:10:15.221Z,84.80
2023-04-16T00:12:42.641Z,85.90
2023-04-16T00:15:10.030Z,87.70
2023-04-16T00:17:37.055Z,88.00
2023-04-16T00:20:04.527Z,88.40
2023-04-16T00:22:31.497Z,89.40
2023-04-16T00:24:58.476Z,90.10
2023-04-16T00:27:25.538Z,90.80
2023-04-16T00:29:52.576Z,92.70
2023-04-16T00:32:19.557Z,93.20
2023-04-16T00:34:46.534Z,93.00
2023-04-16T00:37:13.531Z,94.80
2023-04-16T00:39:40.416Z,95.10
2023-04-16T00:42:09.966Z,95.70
2023-04-16T00:44:37.617Z,97.30
2023-04-16T00:47:05.282Z,96.00
2023-04-16T00:49:32.535Z,94.60
2023-04-16T00:52:00.077Z,93.90
2023-04-16T00:54:27.021Z,94.60
2023-04-16T00:56:54.230Z,96.00
2023-04-16T00:59:22.031Z,96.40
2023-04-16T01:01:49.765Z,95.80
2023-04-16T01:04:17.155Z,96.50
2023-04-16T01:06:46.421Z,98.20
2023-04-16T01:09:14.708Z,98.20
2023-04-16T01:11:41.652Z,98.30
2023-04-16T01:14:08.876Z,97.60
2023-04-16T01:16:35.841Z,98.60
2023-04-16T01:19:03.187Z,98.60
2023-04-16T01:21:32.518Z,99.30
2023-04-16T01:24:04.549Z,99.70
2023-04-16T01:26:31.986Z,98.40
2023-04-16T01:29:00.446Z,98.30
2023-04-16T01:31:27.571Z,98.30
2023-04-16T01:34:00.485Z,98.40
2023-04-16T01:36:28.316Z,99.30
2023-04-16T01:38:55.600Z,99.50
2023-04-16T01:41:24.003Z,99.50
2023-04-16T01:43:51.111Z,99.10
2023-04-16T01:46:27.245Z,98.90
2023-04-16T01:48:54.953Z,99.90
2023-04-16T01:51:22.281Z,99.90
2023-04-16T01:53:52.635Z,99.70
2023-04-16T01:56:19.656Z,99.00
2023-04-16T01:58:47.449Z,98.90
2023-04-16T02:01:16.684Z,99.10
2023-04-16T02:03:45.489Z,99.00
2023-04-16T02:06:12.787Z,98.40
2023-04-16T02:08:39.825Z,97.90
2023-04-16T02:11:07.707Z,96.70
2023-04-16T02:13:35.678Z,96.40
2023-04-16T02:16:02.831Z,96.50
2023-04-16T02:18:39.920Z,96.70
2023-04-16T02:21:07.860Z,96.50
2023-04-16T02:23:34.971Z,97.10
2023-04-16T02:26:03.404Z,95.70
2023-04-16T02:28:30.690Z,96.70
2023-04-16T02:30:57.787Z,97.50
2023-04-16T02:33:26.768Z,95.90
2023-04-16T02:36:00.961Z,97.10
2023-04-16T02:38:28.026Z,97.70
2023-04-16T02:40:55.049Z,97.90
2023-04-16T02:43:22.024Z,98.20
2023-04-16T02:45:49.160Z,98.20
2023-04-16T02:48:16.201Z,98.80
2023-04-16T02:50:43.227Z,98.20
2023-04-16T02:53:10.798Z,98.40
2023-04-16T02:55:37.800Z,98.20
2023-04-16T02:58:04.839Z,98.70
2023-04-16T03:00:31.833Z,98.70
2023-04-16T03:02:59.268Z,99.60
2023-04-16T03:05:26.397Z,99.60
2023-04-16T03:07:56.774Z,98.20
2023-04-16T03:10:24.444Z,98.50
2023-04-16T03:12:51.486Z,98.20
2023-04-16T03:15:18.587Z,99.50
2023-04-16T03:17:45.670Z,99.10
2023-04-16T03:20:13.015Z,99.30
2023-04-16T03:22:40.436Z,99.90
2023-04-16T03:25:08.563Z,99.40
2023-04-16T03:27:36.223Z,99.60
2023-04-16T03:30:04.746Z,98.20
2023-04-16T03:32:33.943Z,98.40
2023-04-16T03:35:04.614Z,99.70
2023-04-16T03:37:32.029Z,98.60
2023-04-16T03:39:59.277Z,98.20
2023-04-16T03:42:27.148Z,97.50
2023-04-16T03:44:54.144Z,98.20
2023-04-16T03:47:22.344Z,98.20
2023-04-16T03:49:52.633Z,98.20
2023-04-16T03:52:19.784Z,98.20
2023-04-16T03:54:46.865Z,98.40
2023-04-16T03:57:22.456Z,98.60
2023-04-16T03:59:49.531Z,98.20
2023-04-16T04:02:17.913Z,98.20
2023-04-16T04:04:45.193Z,98.20
2023-04-16T04:07:12.318Z,98.20
2023-04-16T04:09:39.326Z,99.10
2023-04-16T04:12:06.371Z,99.90
2023-04-16T04:14:39.660Z,99.90
2023-04-16T04:17:11.398Z,99.90
2023-04-16T04:19:42.334Z,99.90
2023-04-16T04:22:14.549Z,99.90
2023-04-16T04:24:41.491Z,99.90
2023-04-16T04:27:11.240Z,99.90
2023-04-16T04:29:38.258Z,99.90
2023-04-16T04:32:06.356Z,99.90
2023-04-16T04:34:34.357Z,99.90
2023-04-16T04:37:01.642Z,99.90
2023-04-16T04:39:29.065Z,99.90
2023-04-16T04:41:57.281Z,99.90
2023-04-16T04:44:24.274Z,99.90
2023-04-16T04:46:51.777Z,99.90
2023-04-16T04:49:19.517Z,99.90
2023-04-16T04:51:47.941Z,99.90
2023-04-16T04:54:15.245Z,99.90
2023-04-16T04:56:45.896Z,99.90
2023-04-16T04:59:14.206Z,99.90
2023-04-16T05:01:41.990Z,99.90
2023-04-16T05:04:09.140Z,99.90
2023-04-16T05:06:36.318Z,99.90
2023-04-16T05:09:03.617Z,99.90
2023-04-16T05:11:30.950Z,99.90
2023-04-16T05:13:57.893Z,99.90
2023-04-16T05:16:25.328Z,99.90
2023-04-16T05:18:52.429Z,99.90
2023-04-16T05:21:19.392Z,99.90
2023-04-16T05:23:46.370Z,99.90
2023-04-16T05:26:13.445Z,99.90
2023-04-16T05:28:40.453Z,99.90
2023-04-16T05:31:07.479Z,99.90
2023-04-16T05:33:34.540Z,99.90
2023-04-16T05:36:01.555Z,99.90
2023-04-16T05:38:28.603Z,99.90
2023-04-16T05:40:56.301Z,99.90
2023-04-16T05:43:23.329Z,99.90
2023-04-16T05:45:50.457Z,99.90
2023-04-16T05:48:17.531Z,99.90
2023-04-16T05:50:44.505Z,99.90
2023-04-16T05:53:12.161Z,99.90
2023-04-16T05:55:39.133Z,99.90
2023-04-16T05:58:06.231Z,99.90
2023-04-16T06:00:33.762Z,99.90
2023-04-16T06:03:01.206Z,99.90
2023-04-16T06:05:28.773Z,99.90
2023-04-16T06:07:56.279Z,99.90
2023-04-16T06:10:23.296Z,99.90
2023-04-16T06:12:50.453Z,99.90
2023-04-16T06:15:17.642Z,99.90
2023-04-16T06:17:44.686Z,99.90
2023-04-16T06:20:12.539Z,99.90
2023-04-16T06:22:39.606Z,99.90
2023-04-16T06:25:06.932Z,99.90
2023-04-16T06:27:34.052Z,99.90
2023-04-16T06:30:01.025Z,99.90
2023-04-16T06:32:28.209Z,99.90
2023-04-16T06:34:57.382Z,99.90
2023-04-16T06:37:24.430Z,99.90
2023-04-16T06:39:51.371Z,99.90
2023-04-16T06:42:18.338Z,99.90
2023-04-16T06:44:45.448Z,99.90
2023-04-16T06:47:12.605Z,99.90
2023-04-16T06:49:40.083Z,99.90
2023-04-16T06:52:07.580Z,99.90
2023-04-16T06:54:36.286Z,99.90
2023-04-16T06:57:03.333Z,99.90
2023-04-16T06:59:33.021Z,99.90
2023-04-16T07:02:00.237Z,99.90
2023-04-16T07:04:29.675Z,99.90
2023-04-16T07:06:57.618Z,99.90
2023-04-16T07:09:25.527Z,99.90
2023-04-16T07:11:52.696Z,99.90
2023-04-16T07:14:19.895Z,99.90
2023-04-16T07:16:46.857Z,99.90
2023-04-16T07:19:13.846Z,99.90
2023-04-16T07:21:43.684Z,99.90
2023-04-16T07:24:14.402Z,99.90
2023-04-16T07:26:41.576Z,99.90
2023-04-16T07:29:08.914Z,99.90
2023-04-16T07:31:36.279Z,99.90
2023-04-16T07:34:03.498Z,99.90
2023-04-16T07:36:31.998Z,99.90
2023-04-16T07:38:58.997Z,99.90
2023-04-16T07:41:26.308Z,99.90
2023-04-16T07:43:53.346Z,99.90
2023-04-16T07:46:20.382Z,99.90
2023-04-16T07:48:47.885Z,99.90
2023-04-16T07:51:14.989Z,99.90
2023-04-16T07:53:43.497Z,99.90
2023-04-16T07:56:10.452Z,99.90
2023-04-16T07:58:37.431Z,99.90
2023-04-16T08:01:04.735Z,99.90
2023-04-16T08:03:31.904Z,99.90
2023-04-16T08:05:59.215Z,99.90
2023-04-16T08:08:26.246Z,99.90
2023-04-16T08:10:55.963Z,99.90
2023-04-16T08:13:24.037Z,99.90
2023-04-16T08:15:51.079Z,99.90
2023-04-16T08:18:19.090Z,99.90
2023-04-16T08:20:46.317Z,99.90
2023-04-16T08:23:14.744Z,99.90
2023-04-16T08:25:41.748Z,99.90
2023-04-16T08:28:08.782Z,99.90
2023-04-16T08:30:36.000Z,99.90
2023-04-16T08:33:03.263Z,99.90
2023-04-16T08:35:30.435Z,99.90
2023-04-16T08:37:59.190Z,99.90
2023-04-16T08:40:29.453Z,99.90
2023-04-16T08:42:59.716Z,99.90
2023-04-16T08:45:27.777Z,99.90
2023-04-16T08:47:54.838Z,99.90
2023-04-16T08:50:26.761Z,99.90
2023-04-16T08:52:58.915Z,99.90
2023-04-16T08:55:52.698Z,99.90
2023-04-16T08:58:22.249Z,99.90
2023-04-16T09:00:50.227Z,99.90
2023-04-16T09:03:17.379Z,99.90
2023-04-16T09:05:48.086Z,99.90
2023-04-16T09:08:15.173Z,99.90
2023-04-16T09:10:43.647Z,99.90
2023-04-16T09:13:11.787Z,99.90
2023-04-16T09:15:39.806Z,99.90
2023-04-16T09:18:06.868Z,99.90
2023-04-16T09:20:38.010Z,99.90
2023-04-16T09:23:06.111Z,99.90
2023-04-16T09:25:38.604Z,99.90
2023-04-16T09:28:05.605Z,99.90
2023-04-16T09:30:33.450Z,99.90
2023-04-16T09:33:22.303Z,99.90
2023-04-16T09:35:51.437Z,99.90
2023-04-16T09:38:19.605Z,99.90
2023-04-16T09:40:49.635Z,99.90
2023-04-16T09:43:18.748Z,99.90
2023-04-16T09:45:55.490Z,99.90
2023-04-16T09:48:39.649Z,99.90
2023-04-16T09:51:07.616Z,99.90
2023-04-16T09:53:34.656Z,99.90
2023-04-16T09:56:03.681Z,99.90
2023-04-16T09:58:30.707Z,99.90
2023-04-16T10:01:12.091Z,99.90
2023-04-16T10:03:40.558Z,99.90
2023-04-16T10:06:19.645Z,99.90
2023-04-16T10:08:57.134Z,99.90
2023-04-16T10:11:24.757Z,99.90
2023-04-16T10:13:54.238Z,99.90
2023-04-16T10:16:23.143Z,99.90
2023-04-16T10:18:50.261Z,99.90
2023-04-16T10:21:17.698Z,99.90
2023-04-16T10:23:44.769Z,99.90
2023-04-16T10:26:12.154Z,99.90
2023-04-16T10:28:40.771Z,99.90
2023-04-16T10:31:09.428Z,99.90
2023-04-16T10:33:40.296Z,99.90
2023-04-16T10:36:22.848Z,99.90
2023-04-16T10:38:52.676Z,99.90
2023-04-16T10:41:21.347Z,99.90
2023-04-16T10:43:53.612Z,99.90
2023-04-16T10:46:29.135Z,99.90
2023-04-16T10:49:00.982Z,99.90
2023-04-16T10:51:32.403Z,99.90
2023-04-16T10:54:08.167Z,99.90
2023-04-16T10:56:36.836Z,99.90
2023-04-16T10:59:07.991Z,99.90
2023-04-16T11:01:37.833Z,99.90
2023-04-16T11:04:20.124Z,99.90
2023-04-16T11:07:15.033Z,99.90
2023-04-16T11:10:02.392Z,99.90
2023-04-16T11:12:29.821Z,99.90
2023-04-16T11:15:31.476Z,99.90
2023-04-16T11:17:58.660Z,99.90
2023-04-16T11:20:28.004Z,99.90
2023-04-16T11:22:59.054Z,99.90
2023-04-16T11:25:29.831Z,99.90
2023-04-16T11:28:03.550Z,99.90
2023-04-16T11:30:35.959Z,99.90
2023-04-16T11:33:09.844Z,99.90
2023-04-16T11:35:37.453Z,99.90
2023-04-16T11:38:06.415Z,99.90
2023-04-16T11:40:33.926Z,99.90
2023-04-16T11:43:16.417Z,99.90
2023-04-16T11:46:12.869Z,99.90
2023-04-16T11:48:49.257Z,99.90
2023-04-16T11:51:17.055Z,99.90
2023-04-16T11:53:53.225Z,99.90
2023-04-16T11:56:28.600Z,99.90
2023-04-16T11:59:15.306Z,99.90
2023-04-16T12:01:48.313Z,99.90
2023-04-16T12:04:17.010Z,99.90
2023-04-16T12:07:10.767Z,99.90
2023-04-16T12:09:40.820Z,99.90
2023-04-16T12:12:31.459Z,99.90
2023-04-16T12:15:05.138Z,99.90
2023-04-16T12:17:35.344Z,99.90
2023-04-16T12:20:07.917Z,99.90
2023-04-16T12:22:37.254Z,99.90
2023-04-16T12:25:12.465Z,99.90
2023-04-16T12:27:55.502Z,99.90
2023-04-16T12:30:24.567Z,99.90
2023-04-16T12:32:54.042Z,99.90
2023-04-16T12:35:32.626Z,99.90
2023-04-16T12:38:01.025Z,99.90
2023-04-16T12:40:28.143Z,99.90
2023-04-16T12:42:55.443Z,99.90
2023-04-16T12:45:22.977Z,99.90
2023-04-16T12:47:50.709Z,99.90
2023-04-16T12:50:18.165Z,99.90
2023-04-16T12:52:45.614Z,99.90
2023-04-16T12:55:14.198Z,99.90
2023-04-16T12:57:41.619Z,99.90
2023-04-16T13:00:10.645Z,99.90
2023-04-16T13:02:37.993Z,99.90
2023-04-16T13:05:05.478Z,99.90
2023-04-16T13:07:34.274Z,99.90
2023-04-16T13:10:01.292Z,99.90
2023-04-16T13:12:28.526Z,99.90
2023-04-16T13:14:56.151Z,99.90
2023-04-16T13:17:23.131Z,99.90
2023-04-16T13:19:50.279Z,99.90
2023-04-16T13:22:18.656Z,99.90
2023-04-16T13:24:46.892Z,99.90
2023-04-16T13:27:16.158Z,99.90
2023-04-16T13:29:43.266Z,99.10
2023-04-16T13:32:10.336Z,99.10
2023-04-16T13:34:37.545Z,99.50
2023-04-16T13:37:04.631Z,99.90
2023-04-16T13:39:31.658Z,99.90
2023-04-16T13:42:01.273Z,99.40
2023-04-16T13:44:29.614Z,99.40
2023-04-16T13:46:56.761Z,99.20
2023-04-16T13:49:25.999Z,99.20
2023-04-16T13:51:53.053Z,99.90
2023-04-16T13:54:20.048Z,99.20
2023-04-16T13:56:47.170Z,99.90
2023-04-16T13:59:16.648Z,99.40
2023-04-16T14:01:46.175Z,99.20
2023-04-16T14:04:13.352Z,99.20
2023-04-16T14:06:40.919Z,99.00
2023-04-16T14:09:09.573Z,96.80
2023-04-16T14:11:37.462Z,97.30
2023-04-16T14:14:04.783Z,97.00
2023-04-16T14:16:31.903Z,96.20
2023-04-16T14:18:58.849Z,97.00
2023-04-16T14:21:27.126Z,97.20
2023-04-16T14:23:54.022Z,97.40
2023-04-16T14:26:21.149Z,96.60
2023-04-16T14:28:48.287Z,95.40
2023-04-16T14:31:17.265Z,95.30
2023-04-16T14:33:44.338Z,93.30
2023-04-16T14:36:11.571Z,92.50
2023-04-16T14:38:38.599Z,91.10
2023-04-16T14:41:05.632Z,92.00
2023-04-16T14:43:32.670Z,92.00
2023-04-16T14:46:00.067Z,92.80
2023-04-16T14:48:27.053Z,90.80
2023-04-16T14:50:54.251Z,90.90
2023-04-16T14:53:23.834Z,90.20
2023-04-16T14:55:52.266Z,90.10
2023-04-16T14:58:19.487Z,90.30
2023-04-16T15:00:46.567Z,90.00
2023-04-16T15:03:13.938Z,90.30
2023-04-16T15:05:41.306Z,91.00
2023-04-16T15:08:08.338Z,91.40
2023-04-16T15:10:37.813Z,92.10
2023-04-16T15:13:04.802Z,92.30
2023-04-16T15:15:32.112Z,93.00
2023-04-16T15:18:00.438Z,93.00
2023-04-16T15:20:27.904Z,93.10
2023-04-16T15:22:55.114Z,93.50
2023-04-16T15:25:22.177Z,94.20
2023-04-16T15:27:49.156Z,93.80
2023-04-16T15:30:16.271Z,92.70
2023-04-16T15:32:46.770Z,92.30
2023-04-16T15:35:14.348Z,92.10
2023-04-16T15:37:41.530Z,90.50
2023-04-16T15:40:09.244Z,90.00
2023-04-16T15:42:36.324Z,90.30
2023-04-16T15:45:03.404Z,91.20
2023-04-16T15:47:30.420Z,89.70
2023-04-16T15:49:57.387Z,89.90
2023-04-16T15:52:24.570Z,89.10
2023-04-16T15:54:52.473Z,90.30
2023-04-16T15:57:19.514Z,89.10
2023-04-16T16:00:03.226Z,88.80
2023-04-16T16:02:36.254Z,91.20
2023-04-16T16:05:04.301Z,90.40
2023-04-16T16:07:31.246Z,91.00
2023-04-16T16:09:58.488Z,90.70
2023-04-16T16:12:25.590Z,90.80
2023-04-16T16:14:52.795Z,89.40
2023-04-16T16:17:20.586Z,89.60
2023-04-16T16:19:47.722Z,89.90
2023-04-16T16:22:16.012Z,88.70
2023-04-16T16:24:43.307Z,89.30
2023-04-16T16:27:10.428Z,88.40
2023-04-16T16:29:39.016Z,88.80
2023-04-16T16:32:06.043Z,88.50
2023-04-16T16:34:33.175Z,88.60
2023-04-16T16:37:00.310Z,87.50
2023-04-16T16:39:27.614Z,88.60
2023-04-16T16:41:54.645Z,87.90
2023-04-16T16:44:22.502Z,87.80
2023-04-16T16:46:50.178Z,89.50
2023-04-16T16:49:18.539Z,88.90
2023-04-16T16:51:49.380Z,88.10
2023-04-16T16:54:16.340Z,88.70
2023-04-16T16:56:43.347Z,88.50
2023-04-16T16:59:10.851Z,89.10
2023-04-16T17:01:38.307Z,89.30
2023-04-16T17:04:05.846Z,87.40
2023-04-16T17:06:33.383Z,86.30
2023-04-16T17:09:00.980Z,86.00
2023-04-16T17:11:29.297Z,87.50
2023-04-16T17:13:56.586Z,88.30
2023-04-16T17:16:24.141Z,88.60
2023-04-16T17:18:51.217Z,88.60
2023-04-16T17:21:18.324Z,89.40
2023-04-16T17:23:45.427Z,89.80
2023-04-16T17:26:13.737Z,90.10
2023-04-16T17:28:40.972Z,90.30
2023-04-16T17:31:09.608Z,90.40
2023-04-16T17:33:36.748Z,90.20
2023-04-16T17:36:04.422Z,90.00
2023-04-16T17:38:31.556Z,90.20
2023-04-16T17:40:58.483Z,89.00
2023-04-16T17:43:27.942Z,88.50
2023-04-16T17:45:54.945Z,89.70
2023-04-16T17:48:22.011Z,90.30
2023-04-16T17:50:50.699Z,89.50
2023-04-16T17:53:17.683Z,89.50
2023-04-16T17:55:56.733Z,89.10
2023-04-16T17:58:26.481Z,89.00
2023-04-16T18:00:53.452Z,88.90
2023-04-16T18:03:22.252Z,89.50
2023-04-16T18:05:49.837Z,90.40
2023-04-16T18:08:16.933Z,90.90
2023-04-16T18:10:43.974Z,91.40
2023-04-16T18:13:11.111Z,91.40
2023-04-16T18:15:38.401Z,91.70
2023-04-16T18:18:06.024Z,91.60
2023-04-16T18:20:33.057Z,91.30
2023-04-16T18:23:00.271Z,90.90
2023-04-16T18:25:34.377Z,90.80
2023-04-16T18:28:03.986Z,90.50
2023-04-16T18:30:31.330Z,91.10
2023-04-16T18:35:28.821Z,91.70
2023-04-16T18:37:55.854Z,91.20
2023-04-16T18:40:22.806Z,91.40
2023-04-16T18:42:49.857Z,91.40
2023-04-16T18:45:21.600Z,91.70
2023-04-16T18:47:50.501Z,93.00
2023-04-16T18:50:17.819Z,93.20
2023-04-16T18:52:45.159Z,93.50
2023-04-16T18:55:12.246Z,92.90
2023-04-16T18:57:39.408Z,92.70
2023-04-16T19:00:12.648Z,93.10
2023-04-16T19:02:40.644Z,93.50
2023-04-16T19:05:09.359Z,94.00
2023-04-16T19:07:40.421Z,94.10
2023-04-16T19:10:08.740Z,94.80
2023-04-16T19:12:36.233Z,94.40
2023-04-16T19:15:06.874Z,93.60
2023-04-16T19:17:34.250Z,93.90
2023-04-16T19:20:02.552Z,94.70
2023-04-16T19:22:32.100Z,94.90
2023-04-16T19:25:00.628Z,95.00
2023-04-16T19:27:32.361Z,96.00
2023-04-16T19:30:03.337Z,95.40
2023-04-16T19:32:31.120Z,96.10
2023-04-16T19:35:02.658Z,96.20
2023-04-16T19:37:29.747Z,96.30
2023-04-16T19:39:57.013Z,96.10
2023-04-16T19:42:24.822Z,96.50
2023-04-16T19:44:52.300Z,97.00
2023-04-16T19:47:20.100Z,97.00
2023-04-16T19:49:47.328Z,97.20
2023-04-16T19:52:15.984Z,97.70
2023-04-16T19:54:43.421Z,97.60
2023-04-16T19:57:13.432Z,97.40
2023-04-16T19:59:40.618Z,98.20
2023-04-16T20:02:10.779Z,97.10
2023-04-16T20:04:40.062Z,96.20
2023-04-16T20:07:07.584Z,96.70
2023-04-16T20:09:34.824Z,97.10
2023-04-16T20:12:02.093Z,97.10
2023-04-16T20:14:31.847Z,97.50
2023-04-16T20:16:59.150Z,96.10
2023-04-16T20:19:31.512Z,95.70
2023-04-16T20:21:58.644Z,96.00
2023-04-16T20:24:26.620Z,96.30
2023-04-16T20:26:53.754Z,96.70
2023-04-16T20:29:20.892Z,96.70
2023-04-16T20:31:48.794Z,96.80
2023-04-16T20:34:20.211Z,97.80
2023-04-16T20:36:47.396Z,98.10
2023-04-16T20:39:14.869Z,97.10
2023-04-16T20:41:44.362Z,98.40
2023-04-16T20:44:18.180Z,97.90
2023-04-16T20:46:49.821Z,98.20
2023-04-16T20:49:18.473Z,98.90
2023-04-16T20:51:45.573Z,98.90
2023-04-16T20:54:14.557Z,99.90
2023-04-16T20:56:41.872Z,99.90
2023-04-16T20:59:09.447Z,99.90
2023-04-16T21:01:37.082Z,99.90
2023-04-16T21:04:04.413Z,99.90
2023-04-16T21:06:33.502Z,99.70
2023-04-16T21:09:00.932Z,99.70
2023-04-16T21:11:29.331Z,99.90
2023-04-16T21:13:56.738Z,99.90
2023-04-16T21:16:23.740Z,99.90
2023-04-16T21:18:50.986Z,99.90
2023-04-16T21:21:19.102Z,99.90
2023-04-16T21:23:46.626Z,99.90
2023-04-16T21:26:15.161Z,99.90
2023-04-16T21:28:42.338Z,99.90
2023-04-16T21:31:09.651Z,99.90
2023-04-16T21:33:36.709Z,99.90
2023-04-16T21:36:04.246Z,99.90
2023-04-16T21:38:31.376Z,99.90
2023-04-16T21:41:00.776Z,99.90
2023-04-16T21:43:30.600Z,99.90
2023-04-16T21:45:59.716Z,99.90
2023-04-16T21:48:29.098Z,99.90
2023-04-16T21:50:59.202Z,99.90
2023-04-16T21:53:32.189Z,99.90
2023-04-16T21:55:59.936Z,99.90
2023-04-16T21:58:33.989Z,99.90
2023-04-16T22:01:03.457Z,99.90
2023-04-16T22:03:31.668Z,99.90
2023-04-16T22:06:01.653Z,99.90
2023-04-16T22:08:29.727Z,99.90
2023-04-16T22:10:58.923Z,99.90
2023-04-16T22:13:26.488Z,99.90
2023-04-16T22:15:54.944Z,99.90
2023-04-16T22:18:26.046Z,99.90
2023-04-16T22:20:55.721Z,99.90
2023-04-16T22:23:23.926Z,99.90
2023-04-16T22:25:53.461Z,99.90
2023-04-16T22:28:22.886Z,99.90
2023-04-16T22:30:51.572Z,99.90
2023-04-16T22:33:19.677Z,99.90
2023-04-16T22:35:46.711Z,99.90
2023-04-16T22:38:14.148Z,99.90
2023-04-16T22:40:41.209Z,99.90
2023-04-16T22:43:09.691Z,99.90
2023-04-16T22:45:37.719Z,99.90
2023-04-16T22:48:04.896Z,99.90
2023-04-16T22:50:33.251Z,99.90
2023-04-16T22:53:00.715Z,99.90
2023-04-16T22:55:27.595Z,99.90
2023-04-16T22:57:54.606Z,99.90
2023-04-16T23:00:21.586Z,99.90
2023-04-16T23:02:48.581Z,99.90
2023-04-16T23:05:15.894Z,99.90
2023-04-16T23:07:42.912Z,99.90
2023-04-16T23:10:10.374Z,99.90
2023-04-16T23:12:37.479Z,99.90
2023-04-16T23:15:06.783Z,99.90
2023-04-16T23:17:35.162Z,99.90
2023-04-16T23:20:02.499Z,99.90
2023-04-16T23:22:29.537Z,99.90
2023-04-16T23:24:56.533Z,99.90
2023-04-16T23:27:23.504Z,99.90
2023-04-16T23:29:50.729Z,99.90
2023-04-16T23:32:18.169Z,99.90
2023-04-16T23:34:45.540Z,99.90
2023-04-16T23:37:12.638Z,99.90
2023-04-16T23:39:39.555Z,99.90
2023-04-16T23:42:06.681Z,99.90
2023-04-16T23:44:33.671Z,99.90
2023-04-16T23:47:01.044Z,99.90
2023-04-16T23:49:28.092Z,99.90
2023-04-16T23:51:55.480Z,99.90
2023-04-16T23:54:22.495Z,99.90
2023-04-16T23:56:49.700Z,99.90
2023-04-16T23:59:16.890Z,99.90
